utilisation pie
utilisation bar
humidity graph
temperature graph
Station id: aae83c for 2 days

start:   stop:  

day time in temp out temp in RH out RH H quota rule action
2021-10-27 00:04:45 13.3 7.0 53 89 112 h 0
2021-10-27 00:34:57 12.7 6.8 55 89 112 h 0
2021-10-27 01:05:15 12.3 6.6 56 90 112 h 0
2021-10-27 01:35:27 12.0 6.5 57 90 112 h 0
2021-10-27 02:05:39 13.7 6.3 51 90 109 h 0
2021-10-27 02:35:51 12.9 6.1 54 91 110 h 0
2021-10-27 03:06:03 12.3 5.9 55 92 110 h 0
2021-10-27 03:36:21 12.0 5.8 56 92 110 h 0
2021-10-27 04:06:33 11.8 5.8 57 93 111 h 0
2021-10-27 04:36:45 13.4 5.5 52 93 108 h 0
2021-10-27 05:06:57 0.0 5.3 0 93 100 e 0
2021-10-27 05:37:18 0.0 5.3 0 94 100 e 0
2021-10-27 06:07:34 0.0 5.3 0 93 100 e 0
2021-10-27 06:37:46 0.0 5.3 0 94 100 e 0
2021-10-27 07:07:58 0.0 5.6 0 94 100 e 0
2021-10-27 07:38:10 0.0 6.0 0 94 100 e 0
2021-10-27 08:08:22 0.0 6.4 0 94 100 e 0
2021-10-27 08:38:35 0.0 6.7 0 94 100 e 0
2021-10-27 09:08:47 0.0 6.9 0 95 100 e 0
2021-10-27 09:38:59 0.0 7.1 0 95 100 e 0
2021-10-27 10:09:13 0.0 7.4 0 95 100 e 0
2021-10-27 10:39:25 0.0 7.7 0 95 100 e 0
2021-10-27 11:09:37 0.0 8.1 0 95 100 e 0
2021-10-27 11:39:49 0.0 8.3 0 95 100 e 0
2021-10-27 12:10:01 0.0 8.5 0 95 100 e 0
2021-10-27 12:40:13 0.0 8.9 0 96 100 e 0
2021-10-27 13:10:25 0.0 9.4 0 96 100 e 0
2021-10-27 13:40:37 0.0 9.9 0 96 100 e 0
2021-10-27 14:10:49 0.0 10.2 0 96 100 e 0
2021-10-27 14:41:02 0.0 10.6 0 96 100 e 0
2021-10-27 15:11:14 0.0 11.1 0 96 100 e 0
2021-10-27 15:41:26 0.0 11.5 0 96 100 e 0
2021-10-27 16:11:38 0.0 11.8 0 96 100 e 0
2021-10-27 16:41:50 0.0 11.7 0 95 100 e 0
2021-10-27 17:12:02 0.0 11.4 0 95 100 e 0
2021-10-27 17:42:14 0.0 11.1 0 95 100 e 0
2021-10-27 18:12:26 0.0 10.8 0 95 100 e 0
2021-10-27 18:42:38 0.0 10.3 0 95 100 e 0
2021-10-27 19:12:50 0.0 9.9 0 95 100 e 0
2021-10-27 19:43:02 0.0 9.6 0 95 100 e 0
2021-10-27 20:13:15 13.1 9.3 56 95 134 h 0
2021-10-27 20:43:27 0.0 9.0 0 95 100 e 0
2021-10-27 21:13:39 0.0 8.8 0 95 100 e 0
2021-10-27 21:43:51 12.1 8.6 58 95 131 h 0
2021-10-27 22:14:03 0.0 8.5 0 95 100 e 0
2021-10-27 22:44:15 0.0 8.4 0 96 100 e 0
2021-10-27 23:14:27 0.0 8.4 0 96 100 e 0
2021-10-27 23:44:39 0.0 8.5 0 96 100 e 0
2021-10-28 00:14:51 0.0 8.7 0 96 100 e 0
2021-10-28 00:45:05 0.0 8.8 0 96 100 e 0
2021-10-28 01:15:18 0.0 8.6 0 96 100 e 0
2021-10-28 01:45:30 0.0 8.7 0 96 100 e 0
2021-10-28 02:15:43 0.0 8.9 0 96 100 e 0
2021-10-28 02:45:55 0.0 8.8 0 96 100 e 0
2021-10-28 03:16:16 0.0 8.9 0 96 100 e 0
2021-10-28 03:46:28 0.0 8.9 0 96 100 e 0
2021-10-28 04:16:40 0.0 8.9 0 96 100 e 0
2021-10-28 04:46:52 0.0 8.7 0 96 100 e 0
2021-10-28 05:17:05 0.0 8.4 0 96 100 e 0
2021-10-28 05:47:17 0.0 8.6 0 96 100 e 0
2021-10-28 06:17:29 11.5 8.9 59 96 138 h 0
2021-10-28 06:47:41 0.0 9.5 0 96 100 e 0
2021-10-28 07:17:55 0.0 9.8 0 96 100 e 0
2021-10-28 07:48:07 0.0 10.1 0 96 100 e 0
2021-10-28 08:18:20 0.0 10.3 0 96 100 e 0
2021-10-28 08:48:32 0.0 10.7 0 96 100 e 0
2021-10-28 09:18:45 0.0 11.2 0 97 100 e 0
2021-10-28 09:48:57 0.0 11.6 0 97 100 e 0
2021-10-28 10:19:09 0.0 12.0 0 97 100 e 0
2021-10-28 10:49:22 0.0 12.4 0 96 100 e 0
2021-10-28 11:19:34 11.7 12.6 58 96 174 h 0
2021-10-28 11:49:47 11.7 12.7 59 96 174 h 0
2021-10-28 12:19:59 13.3 12.8 57 96 162 h 0
2021-10-28 12:50:11 13.5 12.8 65 96 140 h 0
2021-10-28 13:20:23 13.2 12.7 75 96 124 h 0
2021-10-28 13:50:35 13.1 12.8 76 96 123 h 0
2021-10-28 14:20:47 13.1 12.8 71 96 133 h 0
2021-10-28 14:50:59 15.0 13.0 64 96 133 h 0
2021-10-28 15:21:11 14.5 13.2 66 94 132 h 0
2021-10-28 15:51:23 14.1 13.2 67 93 132 h 0
2021-10-28 16:21:35 13.8 13.2 67 91 130 h 0
2021-10-28 16:51:48 14.6 13.2 66 90 125 h 0
2021-10-28 17:22:00 14.8 13.1 66 90 123 h 0
2021-10-28 17:52:12 14.2 13.1 68 89 123 h 0
2021-10-28 18:22:25 13.8 13.1 68 88 123 h 0
2021-10-28 18:52:38 13.6 13.1 68 88 126 h 0
2021-10-28 19:22:50 14.9 13.1 62 88 127 h 0
2021-10-28 19:53:02 14.6 13.0 67 87 117 h 0
2021-10-28 20:23:14 15.5 12.9 68 87 109 h 0
2021-10-28 20:53:26 16.1 12.8 67 86 106 h 0
2021-10-28 21:23:38 16.4 12.7 64 86 107 h 0
2021-10-28 21:53:50 16.4 12.5 65 85 103 h 0


2021-10-28 22:56:09 CEST